Time;durP1;ratioP1;P1;durP2;ratioP2;P2;SDS_P1;SDS_P2;PMS_P1;PMS_P2;Temp;Humidity;BMP_temperature;BMP_pressure;BME280_temperature;BME280_humidity;BME280_pressure;Samples;Min_cycle;Max_cycle;Signal;HPM_P1;HPM_P2
2022/07/09 00:01:04;;;;;;;8.15;3.13;;;11.80;99.90;;;;;;5031099;28;20087;-64
2022/07/09 00:03:30;;;;;;;4.95;3.17;;;11.90;99.90;;;;;;5031687;28;20041;-65
2022/07/09 00:05:57;;;;;;;3.35;2.40;;;11.80;99.90;;;;;;5033341;28;20417;-64
2022/07/09 00:08:24;;;;;;;4.50;2.33;;;11.90;99.90;;;;;;5038104;28;20041;-65
2022/07/09 00:10:51;;;;;;;4.63;3.03;;;11.90;99.90;;;;;;5031388;28;20041;-65
2022/07/09 00:13:18;;;;;;;7.07;2.83;;;11.90;99.90;;;;;;5031832;28;20053;-65
2022/07/09 00:15:44;;;;;;;5.95;2.90;;;11.80;99.90;;;;;;5031008;28;20042;-65
2022/07/09 00:18:11;;;;;;;8.10;3.40;;;11.80;99.90;;;;;;5038281;28;20406;-65
2022/07/09 00:20:38;;;;;;;6.28;3.35;;;11.70;99.90;;;;;;5014869;28;20081;-65
2022/07/09 00:23:05;;;;;;;6.25;3.42;;;11.70;99.90;;;;;;5011835;28;20038;-65
2022/07/09 00:25:32;;;;;;;8.60;3.88;;;11.70;99.90;;;;;;5020079;28;20041;-65
2022/07/09 00:27:59;;;;;;;10.50;3.72;;;11.60;99.90;;;;;;5020305;28;20046;-64
2022/07/09 00:30:26;;;;;;;5.10;3.90;;;11.60;99.90;;;;;;5011396;28;20077;-65
2022/07/09 00:32:53;;;;;;;7.28;3.22;;;11.60;99.90;;;;;;5011797;28;20045;-65
2022/07/09 00:35:20;;;;;;;4.43;2.40;;;11.60;99.90;;;;;;5028697;28;20056;-65
2022/07/09 00:37:47;;;;;;;10.13;3.05;;;11.60;99.90;;;;;;5029020;28;20050;-65
2022/07/09 00:40:14;;;;;;;5.00;2.53;;;11.60;99.90;;;;;;5030834;28;20128;-65
2022/07/09 00:42:41;;;;;;;6.57;2.63;;;11.60;99.90;;;;;;5030020;28;20049;-65
2022/07/09 00:45:08;;;;;;;10.20;2.83;;;11.60;99.90;;;;;;5036349;28;20041;-65
2022/07/09 00:47:34;;;;;;;6.00;2.38;;;11.60;99.90;;;;;;5031065;28;20498;-65
2022/07/09 00:50:02;;;;;;;3.72;2.55;;;11.60;99.90;;;;;;5030899;28;20099;-65
2022/07/09 00:52:30;;;;;;;5.65;2.20;;;11.60;99.90;;;;;;5036603;28;20050;-65
2022/07/09 00:55:00;;;;;;;4.63;2.08;;;11.60;99.90;;;;;;5020501;28;20052;-65
2022/07/09 00:57:29;;;;;;;5.47;2.60;;;11.60;99.90;;;;;;5011543;28;20063;-65
2022/07/09 00:59:57;;;;;;;9.68;2.80;;;11.50;99.90;;;;;;5025131;28;20045;-65
2022/07/09 01:02:25;;;;;;;10.40;2.50;;;11.50;99.90;;;;;;5030887;28;20060;-65
2022/07/09 01:04:52;;;;;;;3.42;2.40;;;11.50;99.90;;;;;;5030993;28;20483;-65
2022/07/09 01:07:18;;;;;;;2.78;2.03;;;11.50;99.90;;;;;;5033481;28;20040;-65
2022/07/09 01:09:45;;;;;;;9.95;2.53;;;11.40;99.90;;;;;;5032372;28;20042;-65
2022/07/09 01:12:12;;;;;;;4.00;2.47;;;11.50;99.90;;;;;;5011056;28;20050;-65
2022/07/09 01:14:39;;;;;;;6.00;2.63;;;11.50;99.90;;;;;;5011038;28;20085;-65
2022/07/09 01:17:06;;;;;;;6.45;2.30;;;11.60;99.90;;;;;;5025364;28;20049;-65
2022/07/09 01:19:34;;;;;;;5.95;2.15;;;11.50;99.90;;;;;;5015403;28;20108;-65
2022/07/09 01:22:01;;;;;;;7.25;3.30;;;11.50;99.90;;;;;;4993504;28;20057;-65
2022/07/09 01:24:33;;;;;;;5.10;2.20;;;11.50;99.90;;;;;;5011235;28;20088;-65
2022/07/09 01:27:00;;;;;;;4.80;2.50;;;11.50;99.90;;;;;;5027339;28;20494;-65
2022/07/09 01:29:27;;;;;;;;;;;11.50;99.90;;;;;;5016245;28;20077;-65
2022/07/09 01:31:54;;;;;;;6.20;2.30;;;11.50;99.90;;;;;;5010601;28;19926;-65
2022/07/09 01:34:30;;;;;;;3.67;2.00;;;11.40;99.90;;;;;;5011103;28;20057;-63
2022/07/09 01:36:57;;;;;;;5.43;2.45;;;11.40;99.90;;;;;;5033109;28;20460;-65
2022/07/09 01:39:23;;;;;;;4.20;2.00;;;11.30;99.90;;;;;;5015953;28;20049;-65
2022/07/09 01:41:50;;;;;;;13.02;2.60;;;11.30;99.90;;;;;;5010837;28;20049;-65
2022/07/09 01:44:17;;;;;;;4.75;2.65;;;11.30;99.90;;;;;;5030352;28;20060;-65
2022/07/09 01:46:43;;;;;;;4.60;2.17;;;11.30;99.90;;;;;;5022034;28;20042;-64
2022/07/09 01:49:10;;;;;;;5.78;2.55;;;11.30;99.90;;;;;;5011299;28;20054;-65
2022/07/09 01:51:37;;;;;;;5.20;2.30;;;11.30;99.90;;;;;;5015064;28;20103;-65
2022/07/09 01:54:04;;;;;;;4.05;2.28;;;11.20;99.90;;;;;;5022859;28;20498;-64
2022/07/09 01:56:31;;;;;;;4.13;2.08;;;11.20;99.90;;;;;;5034609;28;20053;-65
2022/07/09 01:58:58;;;;;;;4.20;2.17;;;11.20;99.90;;;;;;5034726;28;20041;-65
2022/07/09 02:01:24;;;;;;;9.73;2.67;;;11.20;99.90;;;;;;5033800;28;20049;-65
2022/07/09 02:03:51;;;;;;;4.13;2.13;;;11.20;99.90;;;;;;5016212;28;20088;-64
2022/07/09 02:06:18;;;;;;;7.95;2.72;;;11.00;99.90;;;;;;5014639;28;20038;-66
2022/07/09 02:08:45;;;;;;;6.18;2.45;;;11.10;99.90;;;;;;5027330;28;20092;-65
2022/07/09 02:11:12;;;;;;;10.23;2.40;;;11.10;99.90;;;;;;5021129;28;20049;-65
2022/07/09 02:13:38;;;;;;;10.18;2.15;;;11.10;99.90;;;;;;5014824;28;20462;-65
2022/07/09 02:16:05;;;;;;;2.80;2.13;;;11.10;99.90;;;;;;5020698;28;20037;-65
2022/07/09 02:18:32;;;;;;;5.30;2.92;;;11.10;99.90;;;;;;5026797;28;20096;-65
2022/07/09 02:21:00;;;;;;;7.65;2.00;;;11.10;99.90;;;;;;5014009;28;20062;-64
2022/07/09 02:23:27;;;;;;;5.00;1.98;;;11.00;99.90;;;;;;5014137;28;20049;-64
2022/07/09 02:25:53;;;;;;;3.47;1.92;;;11.00;99.90;;;;;;5039360;28;20103;-64
2022/07/09 02:28:20;;;;;;;4.18;2.30;;;11.00;99.90;;;;;;5020094;28;20053;-65
2022/07/09 02:30:47;;;;;;;5.35;2.42;;;11.00;99.90;;;;;;5013918;28;20092;-64
2022/07/09 02:33:14;;;;;;;4.28;1.85;;;11.00;99.90;;;;;;5014223;28;20454;-65
2022/07/09 02:35:41;;;;;;;3.58;2.15;;;11.00;99.90;;;;;;5031190;28;20061;-65
2022/07/09 02:38:07;;;;;;;4.70;2.00;;;11.00;99.90;;;;;;5013807;28;20053;-65
2022/07/09 02:40:34;;;;;;;3.95;1.88;;;10.90;99.90;;;;;;5013753;28;20453;-65
2022/07/09 02:43:01;;;;;;;5.68;2.13;;;10.90;99.90;;;;;;5032877;28;20045;-65
2022/07/09 02:45:27;;;;;;;2.53;1.95;;;10.90;99.90;;;;;;5018759;28;20041;-65
2022/07/09 02:47:54;;;;;;;3.28;1.98;;;10.90;99.90;;;;;;5013819;28;20046;-65
2022/07/09 02:50:21;;;;;;;4.85;2.10;;;10.90;99.90;;;;;;5019705;28;20049;-65
2022/07/09 02:52:48;;;;;;;7.68;2.20;;;10.90;99.90;;;;;;5048870;22;20030;-67
2022/07/09 02:55:15;;;;;;;3.58;1.92;;;10.80;99.90;;;;;;5046422;28;20057;-67
2022/07/09 02:57:41;;;;;;;4.33;1.90;;;10.80;99.90;;;;;;5052758;28;20056;-67
2022/07/09 03:00:08;;;;;;;3.85;1.70;;;10.70;99.90;;;;;;5036014;28;20290;-67
2022/07/09 03:02:35;;;;;;;8.93;2.42;;;10.70;99.90;;;;;;5042594;28;20042;-67
2022/07/09 03:05:02;;;;;;;8.48;2.55;;;10.70;99.90;;;;;;5052775;28;20037;-67
2022/07/09 03:07:29;;;;;;;2.17;1.98;;;10.80;99.90;;;;;;5052762;28;20049;-67
2022/07/09 03:09:56;;;;;;;5.32;2.00;;;10.80;99.90;;;;;;5050541;28;20382;-69
2022/07/09 03:12:23;;;;;;;5.75;2.35;;;10.90;99.90;;;;;;5047461;28;20065;-69
2022/07/09 03:14:49;;;;;;;4.13;1.67;;;10.80;99.90;;;;;;5053072;28;20045;-69
2022/07/09 03:17:16;;;;;;;4.18;2.08;;;10.90;99.90;;;;;;5053196;28;20056;-69
2022/07/09 03:19:43;;;;;;;7.28;2.13;;;10.90;99.90;;;;;;5049926;28;20051;-69
2022/07/09 03:22:11;;;;;;;4.85;1.88;;;10.90;99.90;;;;;;5052703;28;20049;-69
2022/07/09 03:24:38;;;;;;;3.70;2.22;;;10.90;99.90;;;;;;5052825;28;20052;-69
2022/07/09 03:27:05;;;;;;;3.88;1.98;;;10.90;99.90;;;;;;5052966;28;20056;-69
2022/07/09 03:29:32;;;;;;;5.40;1.88;;;10.90;99.90;;;;;;5049246;28;20051;-69
2022/07/09 03:31:59;;;;;;;2.08;1.63;;;10.90;99.90;;;;;;5052412;28;20048;-69
2022/07/09 03:34:26;;;;;;;3.75;2.05;;;10.90;99.90;;;;;;5052657;28;20048;-68
2022/07/09 03:36:53;;;;;;;3.55;1.85;;;10.90;99.90;;;;;;5047839;28;20049;-69
2022/07/09 03:39:20;;;;;;;5.50;2.10;;;10.90;99.90;;;;;;5052635;28;20053;-69
2022/07/09 03:41:47;;;;;;;9.05;2.28;;;10.90;99.90;;;;;;5052239;28;20064;-69
2022/07/09 03:44:14;;;;;;;4.25;1.58;;;10.90;99.90;;;;;;5052477;28;20063;-69
2022/07/09 03:46:40;;;;;;;6.70;2.50;;;10.90;99.90;;;;;;5046608;28;20048;-69
2022/07/09 03:49:08;;;;;;;5.50;2.47;;;11.00;99.90;;;;;;5052417;28;20504;-69
2022/07/09 03:51:35;;;;;;;5.75;2.53;;;11.00;99.90;;;;;;5052079;28;20053;-69
2022/07/09 03:54:02;;;;;;;5.57;2.80;;;11.00;99.90;;;;;;5049426;28;20044;-69
2022/07/09 03:56:29;;;;;;;10.35;3.42;;;11.00;99.90;;;;;;5052259;28;20048;-68
2022/07/09 03:58:56;;;;;;;5.10;3.70;;;11.00;99.90;;;;;;5052457;28;20036;-69
2022/07/09 04:01:22;;;;;;;5.47;3.17;;;11.00;99.90;;;;;;5051792;28;20512;-69
2022/07/09 04:03:49;;;;;;;9.18;3.45;;;11.00;99.90;;;;;;5047630;28;20088;-69
2022/07/09 04:06:16;;;;;;;7.60;3.60;;;11.00;99.90;;;;;;5052056;28;20037;-69
2022/07/09 04:08:44;;;;;;;8.50;3.80;;;11.00;99.90;;;;;;5052144;28;20052;-69
2022/07/09 04:11:10;;;;;;;3.78;2.42;;;11.00;99.90;;;;;;5051664;28;20107;-69
2022/07/09 04:13:37;;;;;;;5.75;2.90;;;11.00;99.90;;;;;;5043935;28;20033;-69
2022/07/09 04:16:05;;;;;;;3.85;2.00;;;11.00;99.90;;;;;;5043681;28;20728;-69
2022/07/09 04:18:31;;;;;;;8.18;4.82;;;11.10;99.90;;;;;;5051135;28;20056;-69
2022/07/09 04:20:59;;;;;;;5.32;2.08;;;11.10;99.90;;;;;;5051671;28;20418;-69
2022/07/09 04:23:26;;;;;;;3.92;1.90;;;11.20;99.90;;;;;;5043334;28;20053;-68
2022/07/09 04:25:53;;;;;;;;;;;11.30;99.90;;;;;;5052045;28;20037;-69
2022/07/09 04:28:20;;;;;;;4.05;1.88;;;11.30;99.90;;;;;;5051797;28;19921;-68
2022/07/09 04:30:47;;;;;;;4.22;2.20;;;11.40;99.90;;;;;;5032485;28;20407;-68
2022/07/09 04:33:14;;;;;;;2.92;2.30;;;11.50;99.90;;;;;;5051667;28;20037;-69
2022/07/09 04:35:41;;;;;;;3.35;2.83;;;11.60;99.90;;;;;;5051690;28;20103;-69
2022/07/09 04:38:08;;;;;;;7.80;2.53;;;11.70;99.90;;;;;;5047123;28;20056;-69
2022/07/09 04:40:35;;;;;;;7.13;2.50;;;11.70;99.90;;;;;;5051189;28;20413;-69
2022/07/09 04:43:02;;;;;;;14.50;3.00;;;11.70;99.90;;;;;;5051445;28;20033;-69
2022/07/09 04:45:29;;;;;;;5.57;2.92;;;11.70;99.90;;;;;;5051484;28;20056;-69
2022/07/09 04:47:58;;;;;;;5.65;2.63;;;11.70;99.90;;;;;;5046171;28;20565;-69
2022/07/09 04:50:25;;;;;;;8.35;3.10;;;11.80;99.90;;;;;;5051068;28;20091;-69
2022/07/09 04:52:53;;;;;;;6.10;2.97;;;11.80;99.90;;;;;;5051364;28;20044;-68
2022/07/09 04:55:21;;;;;;;;;;;11.90;99.90;;;;;;5051829;28;20052;-69
2022/07/09 04:57:48;;;;;;;7.68;2.90;;;11.90;99.90;;;;;;5045584;28;19995;-69
2022/07/09 05:00:18;;;;;;;;;;;11.90;99.90;;;;;;5051367;28;20111;-69
2022/07/09 05:02:45;;;;;;;6.38;3.67;;;12.00;99.90;;;;;;5051268;28;19928;-69
2022/07/09 05:05:13;;;;;;;;;;;12.10;99.90;;;;;;5051735;28;20041;-68
2022/07/09 05:07:43;;;;;;;5.17;2.23;;;12.20;99.90;;;;;;5049284;28;19925;-68
2022/07/09 05:10:10;;;;;;;5.88;2.75;;;12.20;99.90;;;;;;5050927;28;20517;-68
2022/07/09 05:12:37;;;;;;;10.23;2.75;;;12.30;99.90;;;;;;5051163;28;20045;-68
2022/07/09 05:15:04;;;;;;;8.55;2.85;;;12.30;99.90;;;;;;5044365;28;20498;-69
2022/07/09 05:17:34;;;;;;;6.57;3.00;;;12.30;99.90;;;;;;5051097;28;20045;-69
2022/07/09 05:20:03;;;;;;;5.07;2.80;;;12.30;99.90;;;;;;5050874;28;20108;-68
2022/07/09 05:22:32;;;;;;;7.80;2.50;;;12.40;99.90;;;;;;5050960;28;20489;-68
2022/07/09 05:24:59;;;;;;;7.22;3.60;;;12.40;99.90;;;;;;5044452;28;20048;-68
2022/07/09 05:27:26;;;;;;;;;;;12.40;99.90;;;;;;5051539;28;20041;-69
2022/07/09 05:29:53;;;;;;;6.05;3.30;;;12.40;99.90;;;;;;5052596;28;19921;-68
2022/07/09 05:32:20;;;;;;;8.02;3.33;;;12.40;99.90;;;;;;5054292;28;20045;-68
2022/07/09 05:34:47;;;;;;;5.65;3.80;;;12.40;99.90;;;;;;5052616;28;20094;-68
2022/07/09 05:37:14;;;;;;;9.05;3.53;;;12.50;99.90;;;;;;5054915;28;20057;-68
2022/07/09 05:39:41;;;;;;;9.35;3.50;;;12.50;99.90;;;;;;5054941;28;20041;-68
2022/07/09 05:42:08;;;;;;;5.57;3.53;;;12.50;99.90;;;;;;5053779;28;20045;-68
2022/07/09 05:44:34;;;;;;;6.03;3.90;;;12.50;99.90;;;;;;5050655;28;20045;-69
2022/07/09 05:47:02;;;;;;;6.97;3.38;;;12.50;99.90;;;;;;5054748;28;20041;-68
2022/07/09 05:49:29;;;;;;;9.77;3.60;;;12.50;99.90;;;;;;5035126;28;20056;-69
2022/07/09 05:51:56;;;;;;;8.88;3.90;;;12.60;99.90;;;;;;5041513;28;20045;-69
2022/07/09 05:54:23;;;;;;;6.45;3.10;;;12.60;99.90;;;;;;5051034;28;20040;-69
2022/07/09 05:56:51;;;;;;;4.97;3.00;;;12.60;99.90;;;;;;5039594;28;20042;-68
2022/07/09 05:59:17;;;;;;;10.73;4.00;;;12.60;99.90;;;;;;5034685;28;20044;-68
2022/07/09 06:01:44;;;;;;;6.55;4.25;;;12.70;99.90;;;;;;5044574;28;20103;-69
2022/07/09 06:04:11;;;;;;;7.45;4.28;;;12.70;99.90;;;;;;5050866;28;20116;-69
2022/07/09 06:06:38;;;;;;;7.75;4.50;;;12.80;99.90;;;;;;5050618;28;20041;-69
2022/07/09 06:09:05;;;;;;;6.53;4.00;;;12.90;99.90;;;;;;5046597;28;20505;-69
2022/07/09 06:11:31;;;;;;;9.90;3.92;;;13.00;99.90;;;;;;5051648;28;20048;-68
2022/07/09 06:13:58;;;;;;;7.88;4.75;;;13.10;99.90;;;;;;5050852;28;20044;-69
2022/07/09 06:16:25;;;;;;;7.38;4.25;;;13.20;99.90;;;;;;5050852;28;20044;-69
2022/07/09 06:18:52;;;;;;;8.27;3.90;;;13.30;99.90;;;;;;5049710;28;20102;-69
2022/07/09 06:21:18;;;;;;;8.25;3.97;;;13.50;99.90;;;;;;5047938;28;20053;-69
2022/07/09 06:23:45;;;;;;;6.57;3.97;;;13.60;99.90;;;;;;5054176;28;20048;-69
2022/07/09 06:26:12;;;;;;;8.55;3.75;;;13.80;99.90;;;;;;5028759;28;20038;-69
2022/07/09 06:28:39;;;;;;;8.98;3.45;;;13.90;99.90;;;;;;5050461;28;20041;-69
2022/07/09 06:31:05;;;;;;;6.43;3.30;;;14.10;99.90;;;;;;5050720;28;20037;-69
2022/07/09 06:33:32;;;;;;;5.03;3.65;;;14.30;99.90;;;;;;5033932;28;20061;-69
2022/07/09 06:35:59;;;;;;;6.72;2.95;;;14.40;99.90;;;;;;5033582;28;20056;-69
2022/07/09 06:38:29;;;;;;;6.93;3.03;;;14.50;99.90;;;;;;5046047;28;20041;-69
2022/07/09 06:40:56;;;;;;;5.88;3.60;;;14.50;99.90;;;;;;5042689;28;20132;-69
2022/07/09 06:43:23;;;;;;;4.47;2.33;;;14.60;99.90;;;;;;5040712;28;20037;-69
2022/07/09 06:45:53;;;;;;;4.65;2.75;;;14.70;99.90;;;;;;5047030;28;20038;-69
2022/07/09 06:48:20;;;;;;;10.57;3.20;;;14.70;99.90;;;;;;5042065;28;20038;-69
2022/07/09 06:50:47;;;;;;;8.85;3.67;;;14.90;99.90;;;;;;5042584;28;20506;-69
2022/07/09 06:53:13;;;;;;;6.90;3.08;;;15.00;99.90;;;;;;5045821;28;20037;-69
2022/07/09 06:55:40;;;;;;;5.82;3.00;;;15.20;99.90;;;;;;5041386;28;20037;-67
2022/07/09 06:58:07;;;;;;;5.07;2.88;;;15.40;99.90;;;;;;5045688;28;20489;-67
2022/07/09 07:00:34;;;;;;;5.07;3.08;;;15.80;99.90;;;;;;5040385;28;20041;-68
2022/07/09 07:03:00;;;;;;;6.05;3.70;;;15.90;99.90;;;;;;5046391;28;20053;-68
2022/07/09 07:05:28;;;;;;;8.43;3.33;;;16.00;99.90;;;;;;5053176;28;20091;-69
2022/07/09 07:07:54;;;;;;;;;;;16.10;99.90;;;;;;5037957;28;20044;-68
2022/07/09 07:10:21;;;;;;;6.88;2.65;;;16.20;99.90;;;;;;5038557;28;19921;-69
2022/07/09 07:12:49;;;;;;;5.72;2.40;;;16.30;99.90;;;;;;5052710;28;20659;-70
2022/07/09 07:15:16;;;;;;;6.25;2.55;;;16.40;99.90;;;;;;5050473;28;20053;-70
2022/07/09 07:17:43;;;;;;;9.50;2.55;;;16.40;99.90;;;;;;5032943;28;20050;-70
2022/07/09 07:20:10;;;;;;;5.35;2.90;;;16.70;99.90;;;;;;5036816;28;20045;-67
2022/07/09 07:22:37;;;;;;;;;;;16.90;99.90;;;;;;5053163;28;20041;-70
2022/07/09 07:25:04;;;;;;;10.18;3.05;;;17.00;99.90;;;;;;5052690;28;19947;-70
2022/07/09 07:27:31;;;;;;;5.38;2.83;;;17.00;99.90;;;;;;5048662;28;20041;-69
2022/07/09 07:29:58;;;;;;;6.82;3.17;;;17.00;99.90;;;;;;5051121;28;20052;-70
2022/07/09 07:32:25;;;;;;;4.53;2.90;;;17.00;99.90;;;;;;5035016;28;20051;-70
2022/07/09 07:34:51;;;;;;;9.98;3.40;;;17.00;99.90;;;;;;5035086;28;20049;-70
2022/07/09 07:37:18;;;;;;;5.88;3.33;;;17.20;99.90;;;;;;5051473;28;20041;-69
2022/07/09 07:39:47;;;;;;;5.80;2.88;;;17.30;99.90;;;;;;5052260;28;20045;-70
2022/07/09 07:42:15;;;;;;;8.32;3.53;;;17.30;99.90;;;;;;5051938;28;20063;-70
2022/07/09 07:44:42;;;;;;;7.93;3.00;;;17.20;99.90;;;;;;5049737;28;20041;-69
2022/07/09 07:47:09;;;;;;;;;;;17.30;99.90;;;;;;5052666;28;20091;-69
2022/07/09 07:49:35;;;;;;;5.78;3.00;;;17.30;99.90;;;;;;5052301;28;19921;-69
2022/07/09 07:52:03;;;;;;;9.50;3.20;;;17.50;99.90;;;;;;5051928;28;20044;-69
2022/07/09 07:54:30;;;;;;;4.25;2.80;;;17.40;99.90;;;;;;5047712;28;20048;-70
2022/07/09 07:56:57;;;;;;;6.32;2.78;;;17.40;99.90;;;;;;5051223;28;20048;-69
2022/07/09 07:59:23;;;;;;;6.78;3.30;;;17.60;99.90;;;;;;5046928;28;20041;-69
2022/07/09 08:01:50;;;;;;;3.88;2.92;;;17.60;99.90;;;;;;5051773;28;20048;-69
2022/07/09 08:04:17;;;;;;;6.95;3.05;;;17.60;99.90;;;;;;5046160;28;20124;-70
2022/07/09 08:06:44;;;;;;;4.95;2.80;;;17.80;99.90;;;;;;5051926;28;20037;-69
2022/07/09 08:09:10;;;;;;;4.78;2.80;;;17.80;99.90;;;;;;5051862;28;20048;-69
2022/07/09 08:11:37;;;;;;;4.32;2.55;;;18.00;99.90;;;;;;5051475;28;20051;-69
2022/07/09 08:14:05;;;;;;;5.60;2.83;;;18.00;99.90;;;;;;5045200;28;20041;-69
2022/07/09 08:16:31;;;;;;;6.82;3.55;;;18.10;99.90;;;;;;5051723;28;20057;-70
2022/07/09 08:18:58;;;;;;;5.57;2.95;;;18.10;99.90;;;;;;5047310;28;20041;-70
2022/07/09 08:21:25;;;;;;;3.85;2.75;;;18.10;99.90;;;;;;5046036;28;20052;-68
2022/07/09 08:23:53;;;;;;;10.02;3.28;;;18.20;99.90;;;;;;5049816;28;20044;-69
2022/07/09 08:26:22;;;;;;;4.93;2.70;;;18.30;99.90;;;;;;5051315;28;20041;-68
2022/07/09 08:28:49;;;;;;;8.07;2.72;;;18.30;99.90;;;;;;5047550;28;20071;-69
2022/07/09 08:31:16;;;;;;;4.30;2.67;;;18.50;99.90;;;;;;5045009;28;20053;-69
2022/07/09 08:33:44;;;;;;;4.32;2.50;;;18.90;99.90;;;;;;5048292;28;20516;-69
2022/07/09 08:36:11;;;;;;;;;;;19.10;99.90;;;;;;5049462;28;20044;-69
2022/07/09 08:39:02;;;;;;;4.45;2.40;;;19.20;99.90;;;;;;5048415;28;20315;-68
2022/07/09 08:41:29;;;;;;;3.47;2.60;;;19.10;99.90;;;;;;5047353;28;20052;-69
2022/07/09 08:43:56;;;;;;;3.92;2.67;;;18.90;99.90;;;;;;5033425;28;20106;-69
2022/07/09 08:46:23;;;;;;;9.00;2.80;;;19.10;99.90;;;;;;5051339;28;20041;-69
2022/07/09 08:48:50;;;;;;;;;;;19.40;99.90;;;;;;5047333;28;20068;-69
2022/07/09 08:51:19;;;;;;;6.22;2.60;;;19.50;99.90;;;;;;5050927;28;19982;-69
2022/07/09 08:53:45;;;;;;;8.27;2.50;;;19.70;99.90;;;;;;5062725;22;20059;-69
2022/07/09 08:56:12;;;;;;;5.53;2.20;;;20.00;99.90;;;;;;5050384;28;20068;-70
2022/07/09 08:58:40;;;;;;;6.53;2.28;;;20.20;99.90;;;;;;5051149;28;20049;-70
2022/07/09 09:01:07;;;;;;;6.78;1.95;;;20.30;99.90;;;;;;5049362;28;20440;-69
2022/07/09 09:03:35;;;;;;;4.30;2.28;;;20.60;99.90;;;;;;5046570;28;20559;-70
2022/07/09 09:06:08;;;;;;;3.97;2.20;;;20.90;99.90;;;;;;5050934;28;20140;-70
2022/07/09 09:08:35;;;;;;;5.03;2.65;;;21.00;99.90;;;;;;5050868;28;20041;-70
2022/07/09 09:11:04;;;;;;;5.28;2.08;;;21.20;99.90;;;;;;5049684;28;20563;-70
2022/07/09 09:13:39;;;;;;;4.25;2.20;;;21.40;99.90;;;;;;5050860;28;20037;-70
2022/07/09 09:16:07;;;;;;;4.80;2.00;;;21.50;99.90;;;;;;5050679;28;20052;-70
2022/07/09 09:18:41;;;;;;;5.18;1.77;;;22.00;99.90;;;;;;5046003;28;20045;-70
2022/07/09 09:21:10;;;;;;;2.97;1.70;;;22.20;99.90;;;;;;5048133;28;20048;-70
2022/07/09 09:23:41;;;;;;;7.53;1.85;;;22.20;99.90;;;;;;5045535;28;20060;-70
2022/07/09 09:26:12;;;;;;;7.93;2.38;;;21.90;99.90;;;;;;5043330;28;20041;-70
2022/07/09 09:28:46;;;;;;;5.13;1.73;;;21.60;99.90;;;;;;5045513;28;20037;-70
2022/07/09 09:31:27;;;;;;;1.88;1.40;;;21.40;99.90;;;;;;5038606;28;20474;-70
2022/07/09 09:33:57;;;;;;;2.28;1.30;;;21.50;99.90;;;;;;5040673;28;20061;-69
2022/07/09 09:36:32;;;;;;;3.38;1.55;;;21.60;99.90;;;;;;5047655;28;20044;-70
2022/07/09 09:39:26;;;;;;;4.88;1.45;;;21.80;99.90;;;;;;5043236;28;20051;-70
2022/07/09 09:42:01;;;;;;;1.70;1.30;;;21.40;99.90;;;;;;5047502;28;20052;-70
2022/07/09 09:44:37;;;;;;;2.83;1.10;;;21.30;99.90;;;;;;5047721;28;20047;-70
2022/07/09 09:47:07;;;;;;;1.52;1.30;;;21.60;98.50;;;;;;5034093;28;20033;-73
2022/07/09 09:49:42;;;;;;;7.53;1.55;;;21.80;99.90;;;;;;5050341;28;20037;-67
2022/07/09 09:52:10;;;;;;;3.00;1.52;;;22.20;99.90;;;;;;5050552;28;20044;-70
2022/07/09 09:54:45;;;;;;;3.60;1.20;;;22.60;99.90;;;;;;5050184;28;20051;-69
2022/07/09 09:57:16;;;;;;;3.60;1.58;;;22.50;99.90;;;;;;5043684;28;20045;-68
2022/07/09 09:59:45;;;;;;;2.03;1.25;;;22.20;99.90;;;;;;5050426;28;20160;-69
2022/07/09 10:02:13;;;;;;;3.60;1.67;;;22.20;99.90;;;;;;5050498;28;20561;-69
2022/07/09 10:04:42;;;;;;;2.05;1.30;;;22.20;99.90;;;;;;5042081;28;20037;-71
2022/07/09 10:07:12;;;;;;;4.47;1.48;;;22.20;99.90;;;;;;5050562;28;20048;-68
2022/07/09 10:09:39;;;;;;;4.85;1.30;;;22.00;99.90;;;;;;5049809;28;20421;-72
2022/07/09 10:12:09;;;;;;;4.60;1.63;;;21.80;99.90;;;;;;5040203;28;20049;-70
2022/07/09 10:14:38;;;;;;;4.10;1.40;;;21.60;99.90;;;;;;5050523;28;20044;-68
2022/07/09 10:17:15;;;;;;;13.95;2.10;;;21.70;99.90;;;;;;5052566;28;20049;-69
2022/07/09 10:20:04;;;;;;;4.17;1.37;;;21.70;99.90;;;;;;5051594;28;20052;-69
2022/07/09 10:22:43;;;;;;;2.15;1.20;;;21.50;99.90;;;;;;5049472;28;20690;-73
2022/07/09 10:25:14;;;;;;;4.18;1.42;;;21.30;99.90;;;;;;5053892;28;20049;-73
2022/07/09 10:27:42;;;;;;;2.88;1.38;;;21.20;99.90;;;;;;5035048;28;20116;-72
2022/07/09 10:30:24;;;;;;;6.97;1.35;;;21.30;99.90;;;;;;5045934;28;20103;-73
2022/07/09 10:33:03;;;;;;;5.70;1.65;;;21.30;99.90;;;;;;5050395;28;20405;-73
2022/07/09 10:35:30;;;;;;;2.78;1.42;;;21.40;99.90;;;;;;5053210;28;20052;-72
2022/07/09 10:37:57;;;;;;;5.85;1.70;;;21.30;99.90;;;;;;5050473;28;20409;-72
2022/07/09 10:40:27;;;;;;;5.25;1.42;;;21.30;99.90;;;;;;5053681;28;20393;-72
2022/07/09 10:42:59;;;;;;;2.13;1.10;;;21.30;99.90;;;;;;5049165;28;20041;-73
2022/07/09 10:45:39;;;;;;;3.75;1.30;;;21.40;99.90;;;;;;5044829;28;20076;-73
2022/07/09 10:48:09;;;;;;;4.65;1.65;;;21.50;99.90;;;;;;5052187;28;20041;-73
2022/07/09 10:50:41;;;;;;;3.45;1.25;;;21.60;99.90;;;;;;5034623;28;20098;-73
2022/07/09 10:53:08;;;;;;;5.43;1.45;;;21.70;99.90;;;;;;5051142;28;20044;-73
2022/07/09 10:55:35;;;;;;;5.28;1.40;;;21.70;99.90;;;;;;5044987;28;20041;-73
2022/07/09 10:58:07;;;;;;;1.35;1.00;;;21.90;99.90;;;;;;5050851;28;20486;-74
2022/07/09 11:00:35;;;;;;;9.02;1.27;;;22.10;99.90;;;;;;5052193;28;20045;-73
2022/07/09 11:03:05;;;;;;;3.95;1.35;;;22.50;99.90;;;;;;5049394;28;20048;-70
2022/07/09 11:05:34;;;;;;;5.70;1.30;;;22.50;99.90;;;;;;5033492;28;20104;-71
2022/07/09 11:08:01;;;;;;;4.18;1.15;;;22.50;99.90;;;;;;5027018;28;20103;-71
2022/07/09 11:10:29;;;;;;;3.42;1.73;;;22.40;99.90;;;;;;5049028;28;20043;-71
2022/07/09 11:12:59;;;;;;;4.22;1.10;;;22.70;98.90;;;;;;5028546;28;20048;-72
2022/07/09 11:15:27;;;;;;;3.22;1.23;;;22.70;99.00;;;;;;5052090;28;20083;-71
2022/07/09 11:17:55;;;;;;;2.28;1.30;;;22.70;99.90;;;;;;5049471;28;20052;-74
2022/07/09 11:20:22;;;;;;;5.85;1.40;;;22.70;99.90;;;;;;5050263;28;20159;-73
2022/07/09 11:22:49;;;;;;;3.10;1.00;;;22.90;99.90;;;;;;5045447;28;20114;-74
2022/07/09 11:25:26;;;;;;;1.73;1.10;;;23.10;99.50;;;;;;5052312;28;20456;-74
2022/07/09 11:27:57;;;;;;;3.30;1.30;;;23.30;99.30;;;;;;5045651;28;20037;-75
2022/07/09 11:30:24;;;;;;;4.70;1.30;;;23.70;99.20;;;;;;5047227;28;20052;-75
2022/07/09 11:32:51;;;;;;;2.20;1.17;;;24.00;98.70;;;;;;5047820;28;20048;-76
2022/07/09 11:35:25;;;;;;;1.88;1.23;;;24.00;99.90;;;;;;5052224;28;20045;-75
2022/07/09 11:37:52;;;;;;;2.65;1.15;;;23.60;99.90;;;;;;5049322;28;20452;-76
2022/07/09 11:40:20;;;;;;;2.00;1.15;;;23.40;99.20;;;;;;5047520;28;20063;-75
2022/07/09 11:42:47;;;;;;;4.32;1.95;;;23.20;99.50;;;;;;5049095;28;20048;-75
2022/07/09 11:45:14;;;;;;;5.28;1.17;;;23.10;99.90;;;;;;5051712;28;20044;-75
2022/07/09 11:47:41;;;;;;;1.85;1.40;;;22.90;99.90;;;;;;5046797;28;20037;-75
2022/07/09 11:50:13;;;;;;;4.05;1.23;;;22.80;99.90;;;;;;5051463;28;20048;-77
2022/07/09 11:52:50;;;;;;;1.90;1.50;;;22.50;99.90;;;;;;5033858;28;20048;-76
2022/07/09 11:55:20;;;;;;;6.78;1.27;;;22.20;99.90;;;;;;5048247;28;20583;-75
2022/07/09 11:58:06;;;;;;;2.33;1.38;;;22.10;99.90;;;;;;5045016;28;20060;-75
2022/07/09 12:00:34;;;;;;;2.17;1.27;;;21.90;99.90;;;;;;5047438;28;20052;-74
2022/07/09 12:03:01;;;;;;;3.88;1.27;;;21.70;99.90;;;;;;5045826;28;20506;-74
2022/07/09 12:05:39;;;;;;;;;;;21.80;99.90;;;;;;5047889;28;20417;-73
2022/07/09 12:08:07;;;;;;;3.30;1.30;;;21.70;99.90;;;;;;5048524;28;19928;-73
2022/07/09 12:10:36;;;;;;;2.72;1.30;;;21.60;99.90;;;;;;5047522;28;20049;-74
2022/07/09 12:13:04;;;;;;;2.05;1.15;;;21.60;99.90;;;;;;5051836;28;20119;-73
2022/07/09 12:15:31;;;;;;;1.80;1.30;;;21.60;99.90;;;;;;5033870;28;20044;-74
2022/07/09 12:17:59;;;;;;;5.68;1.70;;;21.80;99.90;;;;;;5044244;28;20144;-74
2022/07/09 12:20:32;;;;;;;8.20;1.50;;;22.00;99.90;;;;;;5050977;28;20080;-74
2022/07/09 12:22:59;;;;;;;2.65;1.15;;;22.50;99.90;;;;;;5048642;28;20064;-74
2022/07/09 12:25:26;;;;;;;6.30;1.10;;;23.00;99.90;;;;;;5051407;28;20052;-74
2022/07/09 12:27:52;;;;;;;7.85;2.67;;;23.50;99.00;;;;;;5044095;28;20513;-74
2022/07/09 12:30:20;;;;;;;1.88;1.20;;;23.70;99.90;;;;;;5051153;28;20037;-73
2022/07/09 12:32:47;;;;;;;3.05;1.17;;;23.80;99.70;;;;;;5032073;28;20145;-74
2022/07/09 12:35:14;;;;;;;;;;;23.80;99.70;;;;;;5032090;28;20049;-74
2022/07/09 12:37:41;;;;;;;4.65;1.15;;;23.60;98.40;;;;;;5037408;28;19928;-74
2022/07/09 12:40:11;;;;;;;1.85;1.20;;;23.50;99.80;;;;;;5045447;28;20052;-73
2022/07/09 12:42:39;;;;;;;3.40;1.23;;;23.40;99.90;;;;;;5049216;28;20037;-73
2022/07/09 12:45:06;;;;;;;1.17;0.73;;;23.60;99.90;;;;;;5040395;28;20052;-73
2022/07/09 12:47:37;;;;;;;2.85;0.93;;;23.80;99.60;;;;;;5051035;28;20045;-74
2022/07/09 12:50:05;;;;;;;2.50;1.00;;;24.00;99.20;;;;;;5045282;28;20041;-74
2022/07/09 12:52:32;;;;;;;2.53;0.98;;;24.10;97.40;;;;;;5050782;28;20052;-74
2022/07/09 12:55:03;;;;;;;2.00;0.93;;;24.10;98.10;;;;;;5050678;28;20127;-74